Terminal Aerodrome Forecast
Issued by NWS

Home | Current Version | Previous Version | Graphics & Text | Print | Product List | Glossary On
Versions: 1 2 3 4 5 6 7 8 9 10 11 12 13 14
100
FTUS43 KTOP 281120
TAFMHK
TAF
KMHK 281120Z 2812/2912 VRB02KT P6SM SKC
     FM281400 02010KT P6SM SKC
     FM290000 03003KT P6SM FEW030=

USA.gov is the U.S. government's official web portal to all federal, state and local government web resources and services.